Time;durP1;ratioP1;P1;durP2;ratioP2;P2;SDS_P1;SDS_P2;PMS_P1;PMS_P2;Temp;Humidity;BMP_temperature;BMP_pressure;BME280_temperature;BME280_humidity;BME280_pressure;Samples;Min_cycle;Max_cycle;Signal;HPM_P1;HPM_P2
2022/05/12 00:01:26;;;;;;;;;;;18.30;82.40;;;;;;5056003;28;19943;-91
2022/05/12 00:03:52;;;;;;;;;;;18.10;82.60;;;;;;5056440;28;19958;-92
2022/05/12 00:06:17;;;;;;;;;;;18.10;82.80;;;;;;5056489;28;19930;-91
2022/05/12 00:08:43;;;;;;;;;;;18.20;82.80;;;;;;5056347;28;19958;-92
2022/05/12 00:11:09;;;;;;;;;;;18.10;82.80;;;;;;5056250;28;19908;-91
2022/05/12 00:13:34;;;;;;;;;;;18.10;82.80;;;;;;5056365;28;19929;-91
2022/05/12 00:16:00;;;;;;;;;;;18.10;82.80;;;;;;5056332;28;19909;-91
2022/05/12 00:18:26;;;;;;;;;;;18.10;82.60;;;;;;5056271;28;20467;-91
2022/05/12 00:20:52;;;;;;;;;;;18.10;82.50;;;;;;5056111;28;20430;-91
2022/05/12 00:23:19;;;;;;;;;;;18.10;82.40;;;;;;5055921;28;20089;-92
2022/05/12 00:25:47;;;;;;;;;;;18.20;82.50;;;;;;5056129;28;19963;-92
2022/05/12 00:28:14;;;;;;;;;;;18.20;82.30;;;;;;5056020;28;19943;-91
2022/05/12 00:30:39;;;;;;;;;;;18.20;82.20;;;;;;5056019;28;19909;-91
2022/05/12 00:33:05;;;;;;;;;;;18.30;82.00;;;;;;5055812;28;20329;-92
2022/05/12 00:35:31;;;;;;;;;;;18.20;81.90;;;;;;5071305;28;19964;-91
2022/05/12 00:37:57;;;;;;;;;;;18.20;81.90;;;;;;5055793;28;19915;-91
2022/05/12 00:40:23;;;;;;;;;;;18.10;82.10;;;;;;5038001;28;19916;-91
2022/05/12 00:43:02;;;;;;;;;;;17.90;82.50;;;;;;5055672;28;19992;-91
2022/05/12 00:45:29;;;;;;;;;;;17.80;83.00;;;;;;5055667;28;20354;-92
2022/05/12 00:47:54;;;;;;;;;;;17.80;83.10;;;;;;5055774;28;19995;-91
2022/05/12 00:50:21;;;;;;;;;;;17.90;83.10;;;;;;5055547;28;20410;-91
2022/05/12 00:52:47;;;;;;;;;;;17.80;83.00;;;;;;5055528;28;20019;-92
2022/05/12 00:55:15;;;;;;;;;;;17.70;83.30;;;;;;5055292;28;20021;-92
2022/05/12 00:57:46;;;;;;;;;;;17.60;83.50;;;;;;5055380;28;19920;-91
2022/05/12 01:00:13;;;;;;;;;;;17.40;84.20;;;;;;5055383;28;19944;-91
2022/05/12 01:02:39;;;;;;;;;;;17.30;84.90;;;;;;5037186;28;19920;-91
2022/05/12 01:05:06;;;;;;;;;;;17.30;85.10;;;;;;5055219;28;20033;-92
2022/05/12 01:07:31;;;;;;;;;;;17.30;84.90;;;;;;5055258;28;19983;-91
2022/05/12 01:09:57;;;;;;;;;;;17.30;84.70;;;;;;5055275;28;19929;-91
2022/05/12 01:12:24;;;;;;;;;;;17.30;84.70;;;;;;5055051;28;20389;-91
2022/05/12 01:14:50;;;;;;;;;;;17.30;84.80;;;;;;5055097;28;19989;-91
2022/05/12 01:17:16;;;;;;;;;;;17.30;84.40;;;;;;5055191;28;19967;-91
2022/05/12 01:19:42;;;;;;;;;;;17.30;84.00;;;;;;5055055;28;19931;-92
2022/05/12 01:22:09;;;;;;;;;;;17.30;83.80;;;;;;5054778;28;19961;-91
2022/05/12 01:24:36;;;;;;;;;;;17.30;83.70;;;;;;5054798;28;20007;-91
2022/05/12 01:27:22;;;;;;;;;;;17.30;84.00;;;;;;5054858;28;20040;-91
2022/05/12 01:29:51;;;;;;;;;;;17.30;84.10;;;;;;5054831;28;19934;-91
2022/05/12 01:32:18;;;;;;;;;;;17.30;83.80;;;;;;5054649;28;19922;-91
2022/05/12 01:34:43;;;;;;;;;;;17.30;83.80;;;;;;5054984;28;19947;-92
2022/05/12 01:37:09;;;;;;;;;;;17.30;83.80;;;;;;5054669;28;20420;-92
2022/05/12 01:39:35;;;;;;;;;;;17.30;83.50;;;;;;5054558;28;19924;-91
2022/05/12 01:42:02;;;;;;;;;;;17.20;83.60;;;;;;5054548;28;19919;-91
2022/05/12 01:44:27;;;;;;;;;;;17.10;83.50;;;;;;5054491;28;19909;-91
2022/05/12 01:46:53;;;;;;;;;;;16.90;83.90;;;;;;5054565;28;19935;-91
2022/05/12 01:49:18;;;;;;;;;;;16.70;84.70;;;;;;5054438;28;19994;-91
2022/05/12 01:51:44;;;;;;;;;;;16.80;84.80;;;;;;5054563;28;19924;-91
2022/05/12 01:54:10;;;;;;;;;;;16.80;84.80;;;;;;5054401;28;19953;-91
2022/05/12 01:56:35;;;;;;;;;;;16.90;84.60;;;;;;5054264;28;19952;-91
2022/05/12 01:59:01;;;;;;;;;;;17.00;84.10;;;;;;5054318;28;19943;-91
2022/05/12 02:01:26;;;;;;;;;;;16.80;84.00;;;;;;5053958;28;19931;-91
2022/05/12 02:03:52;;;;;;;;;;;16.60;84.60;;;;;;5054191;28;19934;-91
2022/05/12 02:06:17;;;;;;;;;;;16.50;85.20;;;;;;5053587;28;20016;-91
2022/05/12 02:08:43;;;;;;;;;;;16.50;85.70;;;;;;5053943;28;19977;-92
2022/05/12 02:11:08;;;;;;;;;;;16.60;85.50;;;;;;5054092;28;20058;-92
2022/05/12 02:13:34;;;;;;;;;;;16.70;85.30;;;;;;5054000;28;20403;-91
2022/05/12 02:15:59;;;;;;;;;;;16.70;85.10;;;;;;5053937;28;19916;-91
2022/05/12 02:18:26;;;;;;;;;;;16.60;85.20;;;;;;5053971;28;19909;-91
2022/05/12 02:20:51;;;;;;;;;;;16.60;85.40;;;;;;5053782;28;19909;-92
2022/05/12 02:23:17;;;;;;;;;;;16.50;85.90;;;;;;5053685;28;19912;-91
2022/05/12 02:25:43;;;;;;;;;;;16.50;86.00;;;;;;5053630;28;20323;-91
2022/05/12 02:28:08;;;;;;;;;;;16.50;85.90;;;;;;5035884;28;20038;-92
2022/05/12 02:30:34;;;;;;;;;;;16.60;85.80;;;;;;5053758;28;19946;-92
2022/05/12 02:33:00;;;;;;;;;;;16.60;85.60;;;;;;5053551;28;19909;-92
2022/05/12 02:35:26;;;;;;;;;;;16.60;85.40;;;;;;5053558;28;19913;-92
2022/05/12 02:37:52;;;;;;;;;;;16.60;85.50;;;;;;5053574;28;19909;-91
2022/05/12 02:40:19;;;;;;;;;;;16.70;85.40;;;;;;5053669;28;19962;-91
2022/05/12 02:42:45;;;;;;;;;;;16.70;85.10;;;;;;5053550;28;19952;-91
2022/05/12 02:45:10;;;;;;;;;;;16.70;84.90;;;;;;5053283;28;20408;-91
2022/05/12 02:47:36;;;;;;;;;;;16.60;85.20;;;;;;5053381;28;19913;-91
2022/05/12 02:50:02;;;;;;;;;;;16.60;85.30;;;;;;5053403;28;19916;-91
2022/05/12 02:52:28;;;;;;;;;;;16.50;85.40;;;;;;5053292;28;19913;-91
2022/05/12 02:54:53;;;;;;;;;;;16.50;85.30;;;;;;5053353;28;19908;-91
2022/05/12 02:57:19;;;;;;;;;;;16.50;85.00;;;;;;5053204;28;19927;-91
2022/05/12 02:59:44;;;;;;;;;;;16.40;85.20;;;;;;5053269;28;20410;-91
2022/05/12 03:02:10;;;;;;;;;;;16.40;85.40;;;;;;5053043;28;20442;-91
2022/05/12 03:04:36;;;;;;;;;;;16.40;85.70;;;;;;5053471;28;19953;-91
2022/05/12 03:07:02;;;;;;;;;;;16.30;85.60;;;;;;5053094;28;20358;-91
2022/05/12 03:09:27;;;;;;;;;;;16.20;85.70;;;;;;5053252;28;20373;-91
2022/05/12 03:11:53;;;;;;;;;;;16.00;85.80;;;;;;5053161;28;19913;-91
2022/05/12 03:14:18;;;;;;;;;;;15.70;86.60;;;;;;5053149;28;19963;-91
2022/05/12 03:16:44;;;;;;;;;;;15.60;87.00;;;;;;5053057;28;19959;-91
2022/05/12 03:19:10;;;;;;;;;;;15.60;87.20;;;;;;5055918;28;19909;-91
2022/05/12 03:21:36;;;;;;;;;;;15.50;87.70;;;;;;5057133;28;19908;-91
2022/05/12 03:24:04;;;;;;;;;;;15.50;88.10;;;;;;5057134;28;19908;-91
2022/05/12 03:26:30;;;;;;;;;;;15.50;88.20;;;;;;5057034;28;19943;-91
2022/05/12 03:28:55;;;;;;;;;;;15.60;88.30;;;;;;5057196;28;19946;-91
2022/05/12 03:31:21;;;;;;;;;;;15.60;88.30;;;;;;5057092;28;19997;-91
2022/05/12 03:33:46;;;;;;;;;;;15.60;88.30;;;;;;5057132;28;19973;-91
2022/05/12 03:36:12;;;;;;;;;;;15.70;88.10;;;;;;5056848;28;19978;-92
2022/05/12 03:38:38;;;;;;;;;;;15.70;88.20;;;;;;5072253;28;19916;-91
2022/05/12 03:41:05;;;;;;;;;;;15.70;88.20;;;;;;5056896;28;19908;-91
2022/05/12 03:46:17;;;;;;;;;;;15.70;88.30;;;;;;5025434;28;19995;-91
2022/05/12 03:48:43;;;;;;;;;;;15.80;88.20;;;;;;5056766;28;20010;-91
2022/05/12 03:51:09;;;;;;;;;;;15.80;87.80;;;;;;5056671;28;19913;-91
2022/05/12 03:53:35;;;;;;;;;;;15.80;87.50;;;;;;5056692;28;19927;-91
2022/05/12 03:56:02;;;;;;;;;;;15.80;87.50;;;;;;5056625;28;19952;-91
2022/05/12 03:58:27;;;;;;;;;;;15.80;87.40;;;;;;5056597;28;19964;-91
2022/05/12 04:00:53;;;;;;;;;;;15.90;87.10;;;;;;5056440;28;19924;-91
2022/05/12 04:03:19;;;;;;;;;;;15.90;86.90;;;;;;5056399;28;20389;-90
2022/05/12 04:06:11;;;;;;;;;;;15.80;86.90;;;;;;5143891;27;19922;-91
2022/05/12 04:08:37;;;;;;;;;;;15.60;87.30;;;;;;5131999;28;19912;-91
2022/05/12 04:11:03;;;;;;;;;;;15.60;87.70;;;;;;5131745;28;19954;-91
2022/05/12 04:13:29;;;;;;;;;;;15.50;87.80;;;;;;5131848;28;19954;-91
2022/05/12 04:15:54;;;;;;;;;;;15.40;87.70;;;;;;5131561;28;19943;-91
2022/05/12 04:18:20;;;;;;;;;;;15.40;87.80;;;;;;5131647;28;19931;-91
2022/05/12 04:20:45;;;;;;;;;;;15.50;87.70;;;;;;5131788;28;19954;-90
2022/05/12 04:23:11;;;;;;;;;;;15.60;87.40;;;;;;5131458;28;20003;-91
2022/05/12 04:25:37;;;;;;;;;;;15.60;87.40;;;;;;5131064;28;20280;-91
2022/05/12 04:28:04;;;;;;;;;;;15.70;87.20;;;;;;5131433;28;20002;-91
2022/05/12 04:30:29;;;;;;;;;;;15.70;87.50;;;;;;5131304;28;20355;-91
2022/05/12 04:35:09;;;;;;;;;;;15.80;87.60;;;;;;5131145;28;20037;-91
2022/05/12 04:35:41;;;;;;;;;;;15.90;87.60;;;;;;5127180;28;20448;-91
2022/05/12 04:38:06;;;;;;;;;;;16.00;87.30;;;;;;5110738;28;19987;-91
2022/05/12 04:40:32;;;;;;;;;;;16.00;87.00;;;;;;5092376;28;19912;-91
2022/05/12 04:42:58;;;;;;;;;;;16.00;86.70;;;;;;5092332;28;19957;-91
2022/05/12 04:45:25;;;;;;;;;;;16.10;86.70;;;;;;5110936;28;19946;-91
2022/05/12 04:47:51;;;;;;;;;;;16.10;86.60;;;;;;5110586;28;19952;-91
2022/05/12 04:50:18;;;;;;;;;;;16.10;86.70;;;;;;5110617;28;19970;-91
2022/05/12 04:52:44;;;;;;;;;;;15.90;86.60;;;;;;5096093;28;19964;-91
2022/05/12 04:55:10;;;;;;;;;;;15.80;87.00;;;;;;5091020;28;19920;-91
2022/05/12 04:57:37;;;;;;;;;;;15.80;87.30;;;;;;5101928;28;19912;-91
2022/05/12 05:00:03;;;;;;;;;;;15.80;87.60;;;;;;5097529;28;19919;-91
2022/05/12 05:02:28;;;;;;;;;;;15.80;87.70;;;;;;5091883;28;19948;-91
2022/05/12 05:04:54;;;;;;;;;;;15.90;87.80;;;;;;5098445;28;19929;-90
2022/05/12 05:07:19;;;;;;;;;;;16.00;87.60;;;;;;5117088;28;19949;-91
2022/05/12 05:09:45;;;;;;;;;;;16.20;87.30;;;;;;5105914;28;19918;-91
2022/05/12 05:12:10;;;;;;;;;;;16.30;87.00;;;;;;5107436;28;19944;-91
2022/05/12 05:14:36;;;;;;;;;;;16.40;86.50;;;;;;5109886;28;20162;-91
2022/05/12 05:17:02;;;;;;;;;;;16.50;86.70;;;;;;5112817;28;19946;-91
2022/05/12 05:19:27;;;;;;;;;;;16.50;86.90;;;;;;5116581;28;19942;-91
2022/05/12 05:21:53;;;;;;;;;;;16.60;87.10;;;;;;5085408;28;19936;-90
2022/05/12 05:24:19;;;;;;;;;;;16.60;87.00;;;;;;5086500;28;20053;-90
2022/05/12 05:26:44;;;;;;;;;;;16.80;86.80;;;;;;5103657;28;20040;-91
2022/05/12 05:29:10;;;;;;;;;;;16.80;86.10;;;;;;5091860;28;20207;-91
2022/05/12 05:31:37;;;;;;;;;;;17.00;85.60;;;;;;5074789;28;19919;-90
2022/05/12 05:34:03;;;;;;;;;;;17.10;85.50;;;;;;5094094;28;19912;-91
2022/05/12 05:36:28;;;;;;;;;;;17.20;85.10;;;;;;5085946;28;19920;-91
2022/05/12 05:38:54;;;;;;;;;;;17.20;85.10;;;;;;5087485;28;19940;-91
2022/05/12 05:41:19;;;;;;;;;;;17.30;85.10;;;;;;5090876;28;19973;-91
2022/05/12 05:43:45;;;;;;;;;;;17.40;84.90;;;;;;5089536;28;19965;-90
2022/05/12 05:46:10;;;;;;;;;;;17.40;84.50;;;;;;5079698;28;19950;-91
2022/05/12 05:48:36;;;;;;;;;;;17.60;83.70;;;;;;5078802;28;20430;-91
2022/05/12 05:53:45;;;;;;;;;;;17.80;83.70;;;;;;5083530;28;20331;-91
2022/05/12 05:56:14;;;;;;;;;;;17.90;83.50;;;;;;5092093;28;19940;-91
2022/05/12 05:58:41;;;;;;;;;;;17.90;83.10;;;;;;5092647;28;19974;-91
2022/05/12 06:01:07;;;;;;;;;;;18.00;82.50;;;;;;5083439;28;19960;-92
2022/05/12 06:03:32;;;;;;;;;;;18.10;82.00;;;;;;5087313;28;20377;-92
2022/05/12 06:05:58;;;;;;;;;;;18.30;81.70;;;;;;5081143;28;20013;-91
2022/05/12 06:08:24;;;;;;;;;;;18.30;81.40;;;;;;5074720;28;19923;-91
2022/05/12 06:10:49;;;;;;;;;;;18.40;81.10;;;;;;5086949;28;19943;-91
2022/05/12 06:13:15;;;;;;;;;;;18.50;80.60;;;;;;5105325;28;19912;-91
2022/05/12 06:15:41;;;;;;;;;;;18.60;80.30;;;;;;5087997;28;20395;-91
2022/05/12 06:18:08;;;;;;;;;;;18.70;80.00;;;;;;5082720;28;19925;-91
2022/05/12 06:20:34;;;;;;;;;;;18.80;79.20;;;;;;5080959;28;19934;-91
2022/05/12 06:22:59;;;;;;;;;;;18.90;79.20;;;;;;5084394;28;19973;-91
2022/05/12 06:25:25;;;;;;;;;;;19.00;78.90;;;;;;5085740;28;20280;-91
2022/05/12 06:27:51;;;;;;;;;;;19.10;79.10;;;;;;5073829;28;19964;-91
2022/05/12 06:30:17;;;;;;;;;;;19.20;78.50;;;;;;5082852;28;19966;-91
2022/05/12 06:32:43;;;;;;;;;;;19.30;78.40;;;;;;5095982;28;19923;-91
2022/05/12 06:35:10;;;;;;;;;;;19.30;77.80;;;;;;5083647;28;19952;-91
2022/05/12 06:37:35;;;;;;;;;;;19.40;77.30;;;;;;5093177;28;19934;-92
2022/05/12 06:40:01;;;;;;;;;;;19.50;77.40;;;;;;5082461;28;19972;-91
2022/05/12 06:42:27;;;;;;;;;;;19.60;76.80;;;;;;5080072;28;19966;-91
2022/05/12 06:44:54;;;;;;;;;;;19.70;76.80;;;;;;5092890;28;19960;-90
2022/05/12 06:47:19;;;;;;;;;;;19.80;76.40;;;;;;5085238;28;19960;-90
2022/05/12 06:49:48;;;;;;;;;;;20.00;76.00;;;;;;5090563;28;19990;-91
2022/05/12 06:52:14;;;;;;;;;;;20.10;74.50;;;;;;5056734;28;20473;-91
2022/05/12 06:54:40;;;;;;;;;;;20.20;74.70;;;;;;5091771;28;19913;-91
2022/05/12 06:57:06;;;;;;;;;;;20.20;75.10;;;;;;5090332;28;19928;-91
2022/05/12 06:59:35;;;;;;;;;;;20.30;75.30;;;;;;5085192;28;19955;-91
2022/05/12 07:02:00;;;;;;;;;;;20.30;75.10;;;;;;5092044;28;20008;-91
2022/05/12 07:04:29;;;;;;;;;;;20.30;73.90;;;;;;5075707;28;19995;-91
2022/05/12 07:06:54;;;;;;;;;;;20.40;73.50;;;;;;5069182;28;19913;-91
2022/05/12 07:09:20;;;;;;;;;;;20.50;72.90;;;;;;5098116;28;19979;-91
2022/05/12 07:11:46;;;;;;;;;;;20.50;72.70;;;;;;5087248;28;19959;-91
2022/05/12 07:14:14;;;;;;;;;;;20.60;72.80;;;;;;5069608;28;20254;-90
2022/05/12 07:16:41;;;;;;;;;;;20.60;72.60;;;;;;5088422;28;19924;-90
2022/05/12 07:19:06;;;;;;;;;;;20.70;72.90;;;;;;5085081;28;20403;-90
2022/05/12 07:27:00;;;;;;;;;;;20.80;71.20;;;;;;5089104;28;19935;-91
2022/05/12 07:29:27;;;;;;;;;;;20.90;72.10;;;;;;5084789;28;20299;-91
2022/05/12 07:31:53;;;;;;;;;;;20.90;71.70;;;;;;5087533;28;20003;-91
2022/05/12 07:34:19;;;;;;;;;;;21.00;69.80;;;;;;5087741;28;20357;-91
2022/05/12 07:36:46;;;;;;;;;;;21.00;70.70;;;;;;5087509;28;20048;-91
2022/05/12 07:39:12;;;;;;;;;;;21.10;72.80;;;;;;5074324;28;19999;-91
2022/05/12 07:41:41;;;;;;;;;;;21.20;70.60;;;;;;5078956;28;20003;-91
2022/05/12 07:44:10;;;;;;;;;;;21.20;69.10;;;;;;5081579;28;20304;-91
2022/05/12 07:46:37;;;;;;;;;;;21.30;69.50;;;;;;5087475;28;19912;-92
2022/05/12 07:49:03;;;;;;;;;;;21.40;70.40;;;;;;5093293;28;19912;-91
2022/05/12 07:51:29;;;;;;;;;;;21.40;70.60;;;;;;5087024;28;19913;-91
2022/05/12 07:53:54;;;;;;;;;;;21.50;70.30;;;;;;5082420;28;19912;-91
2022/05/12 07:56:23;;;;;;;;;;;21.50;70.70;;;;;;5086299;28;19912;-91
2022/05/12 07:58:49;;;;;;;;;;;21.70;68.60;;;;;;5086340;28;19981;-91
2022/05/12 08:01:15;;;;;;;;;;;21.80;68.50;;;;;;5092596;28;19964;-91
2022/05/12 08:03:41;;;;;;;;;;;21.80;69.10;;;;;;5080700;28;20377;-91
2022/05/12 08:06:07;;;;;;;;;;;21.90;69.90;;;;;;5084131;28;20286;-91
2022/05/12 08:08:34;;;;;;;;;;;21.90;68.10;;;;;;5078746;28;20238;-90
2022/05/12 08:10:59;;;;;;;;;;;21.90;66.30;;;;;;5077809;28;19917;-91
2022/05/12 08:13:25;;;;;;;;;;;21.90;67.40;;;;;;5083084;28;20492;-91
2022/05/12 08:15:51;;;;;;;;;;;21.90;67.60;;;;;;5079232;28;20369;-91
2022/05/12 08:18:17;;;;;;;;;;;21.90;68.20;;;;;;5079149;28;19912;-91
2022/05/12 08:20:44;;;;;;;;;;;22.00;67.40;;;;;;5100474;28;19922;-92
2022/05/12 08:23:10;;;;;;;;;;;22.00;67.60;;;;;;5103478;28;19913;-91
2022/05/12 08:25:36;;;;;;;;;;;22.10;67.70;;;;;;5091233;28;19994;-91
2022/05/12 08:28:02;;;;;;;;;;;22.20;67.40;;;;;;5074690;28;19947;-91
2022/05/12 08:30:29;;;;;;;;;;;22.30;68.40;;;;;;5101600;28;20369;-91
2022/05/12 08:32:55;;;;;;;;;;;22.40;69.80;;;;;;5090890;28;19943;-91
2022/05/12 08:35:20;;;;;;;;;;;22.40;66.60;;;;;;5080665;28;20404;-91
2022/05/12 08:37:46;;;;;;;;;;;22.60;68.40;;;;;;5091808;28;19920;-92
2022/05/12 08:40:18;;;;;;;;;;;22.60;65.60;;;;;;5081575;28;20281;-91
2022/05/12 08:42:45;;;;;;;;;;;22.60;66.70;;;;;;5075933;28;19977;-91
2022/05/12 08:45:12;;;;;;;;;;;22.70;67.60;;;;;;5067092;28;20006;-91
2022/05/12 08:47:42;;;;;;;;;;;22.80;65.90;;;;;;5080024;28;19927;-92
2022/05/12 08:50:09;;;;;;;;;;;22.80;62.30;;;;;;5064317;28;19913;-91
2022/05/12 08:52:42;;;;;;;;;;;22.90;61.60;;;;;;5084263;28;19920;-92
2022/05/12 08:55:07;;;;;;;;;;;23.00;61.90;;;;;;5084217;28;20003;-92
2022/05/12 08:57:36;;;;;;;;;;;23.00;61.10;;;;;;5093837;28;19997;-91
2022/05/12 09:00:06;;;;;;;;;;;23.20;64.00;;;;;;5072846;28;19912;-92
2022/05/12 09:02:37;;;;;;;;;;;23.30;61.60;;;;;;5088557;28;19912;-92
2022/05/12 09:05:06;;;;;;;;;;;23.40;63.90;;;;;;5078918;28;20193;-92
2022/05/12 09:07:40;;;;;;;;;;;23.50;61.50;;;;;;5087294;28;19912;-91
2022/05/12 09:10:12;;;;;;;;;;;23.50;60.80;;;;;;5085938;28;19912;-92
2022/05/12 09:12:42;;;;;;;;;;;23.60;61.80;;;;;;5086185;28;19912;-91
2022/05/12 09:15:28;;;;;;;;;;;23.70;61.20;;;;;;5085539;28;19982;-92
2022/05/12 09:17:56;;;;;;;;;;;23.80;61.80;;;;;;5082483;28;19951;-92
2022/05/12 09:20:22;;;;;;;;;;;23.80;59.90;;;;;;5086029;28;20356;-91
2022/05/12 09:22:48;;;;;;;;;;;23.80;60.50;;;;;;5087873;28;19971;-91
2022/05/12 09:25:27;;;;;;;;;;;23.90;61.10;;;;;;5091640;28;19927;-91
2022/05/12 09:27:53;;;;;;;;;;;23.80;58.80;;;;;;5089394;28;19916;-91
2022/05/12 09:30:29;;;;;;;;;;;23.80;60.30;;;;;;5084113;28;19913;-91
2022/05/12 09:32:58;;;;;;;;;;;23.80;61.50;;;;;;5082145;28;19919;-91
2022/05/12 09:35:24;;;;;;;;;;;23.80;59.80;;;;;;5085522;28;19920;-91
2022/05/12 09:37:51;;;;;;;;;;;23.80;58.70;;;;;;5090431;28;20315;-91
2022/05/12 09:40:19;;;;;;;;;;;23.80;56.40;;;;;;5067184;28;19908;-91
2022/05/12 09:42:50;;;;;;;;;;;23.90;55.40;;;;;;5087506;28;19948;-91
2022/05/12 09:45:15;;;;;;;;;;;24.00;58.30;;;;;;5086916;28;19923;-91
2022/05/12 09:47:41;;;;;;;;;;;24.10;61.70;;;;;;5080416;28;19912;-90
2022/05/12 09:50:16;;;;;;;;;;;24.20;57.20;;;;;;5085867;28;20007;-91
2022/05/12 09:52:43;;;;;;;;;;;24.10;57.00;;;;;;5086084;28;19919;-90
2022/05/12 09:55:13;;;;;;;;;;;24.20;59.70;;;;;;5084067;28;19935;-91
2022/05/12 09:57:53;;;;;;;;;;;24.20;59.20;;;;;;5084901;28;19912;-92
2022/05/12 10:00:39;;;;;;;;;;;24.30;58.10;;;;;;5094680;28;20369;-92
2022/05/12 10:09:00;;;;;;;;;;;24.40;55.90;;;;;;5080398;28;19961;-92
2022/05/12 10:11:27;;;;;;;;;;;24.50;58.30;;;;;;5092444;28;19919;-91
2022/05/12 10:13:56;;;;;;;;;;;24.60;57.80;;;;;;5056870;28;19916;-91
2022/05/12 10:16:25;;;;;;;;;;;24.70;57.00;;;;;;5056940;28;20372;-91
2022/05/12 10:18:54;;;;;;;;;;;24.80;56.80;;;;;;5090835;28;19908;-91
2022/05/12 10:21:24;;;;;;;;;;;24.90;55.20;;;;;;5095177;28;19977;-91
2022/05/12 10:23:50;;;;;;;;;;;25.00;55.00;;;;;;5094909;28;19954;-92
2022/05/12 10:26:24;;;;;;;;;;;25.00;56.40;;;;;;5101834;28;19939;-91
2022/05/12 10:28:56;;;;;;;;;;;25.10;56.70;;;;;;5115181;28;19912;-92
2022/05/12 10:31:32;;;;;;;;;;;25.20;56.60;;;;;;5115181;28;19999;-91
2022/05/12 10:34:01;;;;;;;;;;;25.50;57.90;;;;;;5114922;28;19907;-91
2022/05/12 10:36:35;;;;;;;;;;;25.60;57.70;;;;;;5087769;28;19912;-92
2022/05/12 10:39:16;;;;;;;;;;;25.60;54.50;;;;;;5094866;28;19912;-91
2022/05/12 10:42:01;;;;;;;;;;;25.80;53.50;;;;;;5094572;28;20006;-92
2022/05/12 10:44:39;;;;;;;;;;;25.80;56.70;;;;;;5094464;28;19912;-91
2022/05/12 10:47:13;;;;;;;;;;;26.00;54.40;;;;;;5094405;28;19911;-91
2022/05/12 10:50:01;;;;;;;;;;;25.80;52.40;;;;;;5094438;28;19912;-91
2022/05/12 10:52:27;;;;;;;;;;;25.70;53.20;;;;;;5093909;28;19973;-91
2022/05/12 10:55:04;;;;;;;;;;;25.70;55.80;;;;;;5094296;28;20366;-91
2022/05/12 10:57:39;;;;;;;;;;;25.70;53.60;;;;;;5111365;28;19908;-91
2022/05/12 11:00:15;;;;;;;;;;;25.70;54.50;;;;;;5114569;28;20335;-91
2022/05/12 11:02:43;;;;;;;;;;;25.80;53.00;;;;;;5114476;28;19969;-91
2022/05/12 11:05:10;;;;;;;;;;;25.90;52.20;;;;;;5114336;28;19926;-91
2022/05/12 11:07:38;;;;;;;;;;;25.80;52.40;;;;;;5095338;28;19912;-91
2022/05/12 11:10:04;;;;;;;;;;;25.90;51.80;;;;;;5093483;28;20392;-91
2022/05/12 11:12:31;;;;;;;;;;;26.10;51.20;;;;;;5093855;28;19908;-91
2022/05/12 11:15:10;;;;;;;;;;;26.20;51.00;;;;;;5093478;28;19908;-91
2022/05/12 11:17:36;;;;;;;;;;;26.40;52.50;;;;;;5111291;28;19912;-91
2022/05/12 11:20:09;;;;;;;;;;;26.70;53.50;;;;;;5096006;28;19915;-92
2022/05/12 11:22:48;;;;;;;;;;;27.00;53.20;;;;;;5095808;28;19950;-91
2022/05/12 11:25:22;;;;;;;;;;;27.30;51.20;;;;;;5114017;28;19912;-92
2022/05/12 11:30:54;;;;;;;;;;;27.70;49.70;;;;;;5102838;28;19964;-92
2022/05/12 11:33:32;;;;;;;;;;;27.90;47.00;;;;;;5094002;28;19912;-91
2022/05/12 11:35:57;;;;;;;;;;;28.00;46.10;;;;;;5107409;28;20314;-91
2022/05/12 11:38:35;;;;;;;;;;;28.10;47.50;;;;;;5084233;28;19950;-91
2022/05/12 11:41:01;;;;;;;;;;;28.20;46.30;;;;;;5082692;28;19955;-91
2022/05/12 11:46:17;;;;;;;;;;;28.40;44.20;;;;;;5090678;28;19962;-92
2022/05/12 11:48:45;;;;;;;;;;;28.70;43.40;;;;;;5088671;28;19912;-92
2022/05/12 11:51:20;;;;;;;;;;;28.90;43.60;;;;;;5089560;28;19992;-92
2022/05/12 11:53:50;;;;;;;;;;;29.00;44.90;;;;;;5105204;28;19999;-92
2022/05/12 11:56:36;;;;;;;;;;;28.70;47.00;;;;;;5083019;28;20380;-92
2022/05/12 11:59:16;;;;;;;;;;;28.50;46.30;;;;;;5092794;28;19919;-91
2022/05/12 12:01:41;;;;;;;;;;;28.50;45.20;;;;;;5093106;28;19915;-91
2022/05/12 12:04:12;;;;;;;;;;;28.90;48.10;;;;;;5097499;22;20011;-92
2022/05/12 12:06:40;;;;;;;;;;;29.20;44.10;;;;;;5072154;28;19920;-91
2022/05/12 12:09:24;;;;;;;;;;;29.70;45.20;;;;;;5070387;28;20038;-93
2022/05/12 12:11:50;;;;;;;;;;;30.30;43.70;;;;;;5052738;28;19917;-91
2022/05/12 12:14:35;;;;;;;;;;;30.00;42.50;;;;;;5055903;28;20282;-91
2022/05/12 12:17:04;;;;;;;;;;;29.70;41.70;;;;;;5066507;28;19913;-91
2022/05/12 12:19:43;;;;;;;;;;;29.40;42.10;;;;;;5064079;28;19920;-92
2022/05/12 12:22:29;;;;;;;;;;;29.60;42.30;;;;;;5064245;28;20362;-91
2022/05/12 12:24:54;;;;;;;;;;;30.20;41.70;;;;;;5061437;28;19913;-92
2022/05/12 12:27:32;;;;;;;;;;;30.70;40.00;;;;;;5071959;28;19919;-92
2022/05/12 12:30:16;;;;;;;;;;;31.00;39.30;;;;;;5074532;28;19919;-92
2022/05/12 12:32:41;;;;;;;;;;;31.60;39.70;;;;;;5070009;28;20382;-92
2022/05/12 12:35:22;;;;;;;;;;;32.00;38.20;;;;;;5061145;28;19969;-92
2022/05/12 12:37:48;;;;;;;;;;;32.20;37.80;;;;;;5061936;28;19912;-92
2022/05/12 12:40:40;;;;;;;;;;;32.70;37.60;;;;;;5075924;28;20362;-92
2022/05/12 12:43:17;;;;;;;;;;;32.50;38.60;;;;;;5075507;28;19920;-92
2022/05/12 12:45:47;;;;;;;;;;;32.40;37.00;;;;;;5063601;28;19986;-92
2022/05/12 12:48:16;;;;;;;;;;;32.40;38.90;;;;;;5075040;28;19935;-92
2022/05/12 12:50:43;;;;;;;;;;;32.50;37.60;;;;;;5066535;28;20019;-92
2022/05/12 12:56:30;;;;;;;;;;;32.40;37.30;;;;;;5072760;28;20003;-92
2022/05/12 12:56:32;;;;;;;;;;;32.70;36.50;;;;;;5066461;28;19917;-92
2022/05/12 12:59:08;;;;;;;;;;;33.50;35.90;;;;;;5072644;28;19919;-92
2022/05/12 13:01:40;;;;;;;;;;;34.10;38.30;;;;;;5067230;28;19922;-92
2022/05/12 13:04:07;;;;;;;;;;;34.70;34.10;;;;;;5066802;28;20537;-92
2022/05/12 13:06:36;;;;;;;;;;;34.60;35.60;;;;;;5074035;28;20393;-92
2022/05/12 13:09:05;;;;;;;;;;;34.60;34.40;;;;;;5074438;28;19923;-92
2022/05/12 13:11:31;;;;;;;;;;;34.30;34.40;;;;;;5074847;28;19912;-92
2022/05/12 13:13:56;;;;;;;;;;;34.30;33.70;;;;;;5067510;28;20290;-92
2022/05/12 13:16:33;;;;;;;;;;;34.30;34.50;;;;;;5071667;28;19927;-92
2022/05/12 13:18:59;;;;;;;;;;;35.30;32.80;;;;;;5075621;28;19943;-92
2022/05/12 13:21:28;;;;;;;;;;;36.50;31.20;;;;;;5073574;28;20365;-92
2022/05/12 13:24:01;;;;;;;;;;;37.30;30.40;;;;;;5075395;28;20366;-92
2022/05/12 13:26:27;;;;;;;;;;;36.90;30.90;;;;;;5074589;28;19916;-93
2022/05/12 13:28:53;;;;;;;;;;;37.10;31.00;;;;;;5073862;28;20258;-93
2022/05/12 13:31:23;;;;;;;;;;;37.90;29.70;;;;;;5073850;28;19912;-92
2022/05/12 13:34:05;;;;;;;;;;;38.70;28.50;;;;;;5073825;28;19913;-92
2022/05/12 13:36:32;;;;;;;;;;;38.10;30.70;;;;;;5074634;28;19912;-92
2022/05/12 13:38:57;;;;;;;;;;;37.90;29.90;;;;;;5074104;28;19912;-92
2022/05/12 13:41:30;;;;;;;;;;;37.50;30.90;;;;;;5074142;28;19941;-93
2022/05/12 13:44:05;;;;;;;;;;;37.40;29.80;;;;;;5073203;28;19913;-92
2022/05/12 13:46:32;;;;;;;;;;;36.90;31.80;;;;;;5070845;28;19978;-93
2022/05/12 13:49:00;;;;;;;;;;;37.00;30.40;;;;;;5063944;28;19913;-92
2022/05/12 13:51:39;;;;;;;;;;;37.20;30.00;;;;;;5075081;28;19913;-93
2022/05/12 13:54:08;;;;;;;;;;;38.10;29.20;;;;;;5074893;28;20354;-92
2022/05/12 13:56:35;;;;;;;;;;;38.20;28.40;;;;;;5072975;28;19923;-93
2022/05/12 13:59:13;;;;;;;;;;;39.30;26.90;;;;;;5068770;28;19999;-93
2022/05/12 14:01:39;;;;;;;;;;;40.00;26.60;;;;;;5071244;28;19919;-92
2022/05/12 14:04:13;;;;;;;;;;;40.80;25.90;;;;;;5067487;28;19913;-93
2022/05/12 14:06:40;;;;;;;;;;;41.20;25.90;;;;;;5068800;28;20366;-92
2022/05/12 14:09:06;;;;;;;;;;;40.60;26.20;;;;;;5072637;28;19981;-93
2022/05/12 14:11:31;;;;;;;;;;;40.20;27.20;;;;;;5074226;28;19935;-93
2022/05/12 14:19:26;;;;;;;;;;;41.40;24.80;;;;;;5054699;28;19962;-93
2022/05/12 14:21:54;;;;;;;;;;;41.40;26.20;;;;;;5059623;28;19916;-92
2022/05/12 14:24:21;;;;;;;;;;;40.10;26.80;;;;;;5070633;28;20070;-93
2022/05/12 14:26:47;;;;;;;;;;;39.60;26.30;;;;;;5073045;28;20366;-91
2022/05/12 14:29:12;;;;;;;;;;;38.60;27.70;;;;;;5066393;28;19922;-92
2022/05/12 14:31:39;;;;;;;;;;;36.80;28.10;;;;;;5072261;28;19931;-93
2022/05/12 14:34:06;;;;;;;;;;;36.70;28.50;;;;;;5073589;28;19912;-92
2022/05/12 14:36:32;;;;;;;;;;;36.80;28.10;;;;;;5073977;28;19999;-93
2022/05/12 14:38:59;;;;;;;;;;;37.40;27.70;;;;;;5072737;28;19971;-92
2022/05/12 14:41:25;;;;;;;;;;;36.80;28.40;;;;;;5068335;28;19913;-93
2022/05/12 14:43:51;;;;;;;;;;;36.60;29.20;;;;;;5068904;28;20373;-92
2022/05/12 14:46:17;;;;;;;;;;;36.90;27.80;;;;;;5073890;28;19916;-93
2022/05/12 14:48:45;;;;;;;;;;;37.20;29.30;;;;;;5073021;28;20425;-93
2022/05/12 14:51:11;;;;;;;;;;;37.70;27.60;;;;;;5073618;28;19919;-93